Time;durP1;ratioP1;P1;durP2;ratioP2;P2;SDS_P1;SDS_P2;PMS_P1;PMS_P2;Temp;Humidity;BMP_temperature;BMP_pressure;BME280_temperature;BME280_humidity;BME280_pressure;Samples;Min_cycle;Max_cycle;Signal;HPM_P1;HPM_P2
2020/12/18 00:00:46;;;;;;;;;;;3.60;99.90;;;;;;4973624;28;19989;-89
2020/12/18 00:03:12;;;;;;;;;;;3.60;99.90;;;;;;4957095;28;20378;-87
2020/12/18 00:05:42;;;;;;;;;;;3.60;99.90;;;;;;4967866;28;19911;-89
2020/12/18 00:08:08;;;;;;;;;;;3.60;99.90;;;;;;4965488;28;19911;-89
2020/12/18 00:10:34;;;;;;;;;;;3.50;99.90;;;;;;4943452;28;19997;-88
2020/12/18 00:12:59;;;;;;;;;;;3.50;99.90;;;;;;4972840;28;19945;-87
2020/12/18 00:15:26;;;;;;;;;;;3.50;99.90;;;;;;4956896;28;20410;-89
2020/12/18 00:17:56;;;;;;;;;;;3.50;99.90;;;;;;4957291;28;19993;-86
2020/12/18 00:20:24;;;;;;;;;;;3.50;99.90;;;;;;4976436;28;19914;-87
2020/12/18 00:22:52;;;;;;;;;;;3.50;99.90;;;;;;4959886;28;19918;-88
2020/12/18 00:25:18;;;;;;;;;;;3.50;99.90;;;;;;4973644;28;19911;-88
2020/12/18 00:27:46;;;;;;;;;;;3.40;99.90;;;;;;4959593;28;19924;-87
2020/12/18 00:30:15;;;;;;;;;;;3.40;99.90;;;;;;4976420;28;19910;-87
2020/12/18 00:32:41;;;;;;;;;;;3.40;99.90;;;;;;4976453;28;19910;-88
2020/12/18 00:35:07;;;;;;;;;;;3.40;99.90;;;;;;4966513;28;19917;-87
2020/12/18 00:37:35;;;;;;;;;;;3.40;99.90;;;;;;4972288;28;20293;-88
2020/12/18 00:40:02;;;;;;;;;;;3.40;99.90;;;;;;4976445;28;20346;-87
2020/12/18 00:42:32;;;;;;;;;;;3.40;99.90;;;;;;4975938;28;19910;-88
2020/12/18 00:44:58;;;;;;;;;;;3.30;99.90;;;;;;4959968;28;19953;-87
2020/12/18 00:47:24;;;;;;;;;;;3.30;99.90;;;;;;4966446;28;19980;-89
2020/12/18 00:49:52;;;;;;;;;;;3.20;99.90;;;;;;4971546;28;19973;-87
2020/12/18 00:52:20;;;;;;;;;;;3.20;99.90;;;;;;4959469;28;19964;-87
2020/12/18 00:54:45;;;;;;;;;;;3.20;99.90;;;;;;4975967;28;19921;-87
2020/12/18 00:57:13;;;;;;;;;;;3.20;99.90;;;;;;4953936;29;19910;-86
2020/12/18 00:59:39;;;;;;;;;;;3.20;99.90;;;;;;4952509;28;20287;-88
2020/12/18 01:02:07;;;;;;;;;;;3.20;99.90;;;;;;4959589;28;19910;-87
2020/12/18 01:04:32;;;;;;;;;;;3.20;99.90;;;;;;4975645;28;19922;-87
2020/12/18 01:06:58;;;;;;;;;;;3.10;99.90;;;;;;4959239;28;19942;-86
2020/12/18 01:09:24;;;;;;;;;;;3.10;99.90;;;;;;4975883;28;19910;-87
2020/12/18 01:11:50;;;;;;;;;;;3.20;99.90;;;;;;4975495;28;20263;-87
2020/12/18 01:14:18;;;;;;;;;;;3.20;99.90;;;;;;4959405;28;19914;-87
2020/12/18 01:16:52;;;;;;;;;;;3.10;99.90;;;;;;4974993;28;19917;-87
2020/12/18 01:19:18;;;;;;;;;;;3.10;99.90;;;;;;4959299;28;20347;-87
2020/12/18 01:21:46;;;;;;;;;;;3.10;99.90;;;;;;4975261;28;20370;-88
2020/12/18 01:24:12;;;;;;;;;;;3.00;99.90;;;;;;4959202;28;20266;-88
2020/12/18 01:26:38;;;;;;;;;;;3.00;99.90;;;;;;4964884;28;19925;-87
2020/12/18 01:29:06;;;;;;;;;;;3.00;99.90;;;;;;4971390;28;19911;-87
2020/12/18 01:31:32;;;;;;;;;;;2.90;99.90;;;;;;4974887;28;19911;-87
2020/12/18 01:34:00;;;;;;;;;;;2.90;99.90;;;;;;4975011;28;19953;-87
2020/12/18 01:36:26;;;;;;;;;;;2.90;99.90;;;;;;4975132;28;19914;-89
2020/12/18 01:38:51;;;;;;;;;;;2.90;99.90;;;;;;4962419;28;19973;-87
2020/12/18 01:41:17;;;;;;;;;;;2.90;99.90;;;;;;4974190;28;20298;-88
2020/12/18 01:43:45;;;;;;;;;;;2.90;99.90;;;;;;4974797;28;20278;-88
2020/12/18 01:46:13;;;;;;;;;;;2.90;99.90;;;;;;4974783;28;20425;-87
2020/12/18 01:48:40;;;;;;;;;;;2.90;99.90;;;;;;4974611;28;20293;-88
2020/12/18 01:51:08;;;;;;;;;;;2.90;99.90;;;;;;4975025;28;19953;-87
2020/12/18 01:53:37;;;;;;;;;;;2.80;99.90;;;;;;4958580;28;19917;-87
2020/12/18 01:56:06;;;;;;;;;;;2.80;99.90;;;;;;4974750;28;19911;-87
2020/12/18 01:58:32;;;;;;;;;;;2.80;99.90;;;;;;4974322;28;19964;-86
2020/12/18 02:01:07;;;;;;;;;;;2.80;99.90;;;;;;4958222;28;20377;-87
2020/12/18 02:03:33;;;;;;;;;;;2.70;99.90;;;;;;4974306;28;19969;-89
2020/12/18 02:06:02;;;;;;;;;;;2.80;99.90;;;;;;4958481;28;19956;-87
2020/12/18 02:08:33;;;;;;;;;;;2.70;99.90;;;;;;4974386;28;19910;-87
2020/12/18 02:10:59;;;;;;;;;;;2.70;99.90;;;;;;4975705;28;19933;-87
2020/12/18 02:13:27;;;;;;;;;;;2.70;99.90;;;;;;4958211;28;20211;-87
2020/12/18 02:15:55;;;;;;;;;;;2.70;99.90;;;;;;4961213;28;19910;-87
2020/12/18 02:18:22;;;;;;;;;;;2.70;99.90;;;;;;4958212;28;19910;-87
2020/12/18 02:20:48;;;;;;;;;;;2.70;99.90;;;;;;4958540;28;20004;-87
2020/12/18 02:23:13;;;;;;;;;;;2.70;99.90;;;;;;4957953;28;19910;-87
2020/12/18 02:25:40;;;;;;;;;;;2.60;99.90;;;;;;4975160;28;19918;-87
2020/12/18 02:28:06;;;;;;;;;;;2.60;99.90;;;;;;4974601;28;19941;-86
2020/12/18 02:30:34;;;;;;;;;;;2.60;99.90;;;;;;4958347;28;19911;-87
2020/12/18 02:33:03;;;;;;;;;;;2.60;99.90;;;;;;4974119;28;20417;-86
2020/12/18 02:35:31;;;;;;;;;;;2.60;99.90;;;;;;4958069;28;20313;-86
2020/12/18 02:37:58;;;;;;;;;;;2.60;99.90;;;;;;4973992;28;19917;-87
2020/12/18 02:40:24;;;;;;;;;;;2.50;99.90;;;;;;4973571;28;19910;-88
2020/12/18 02:42:49;;;;;;;;;;;2.60;99.90;;;;;;4973765;28;19980;-87
2020/12/18 02:45:15;;;;;;;;;;;2.50;99.90;;;;;;4944541;28;19914;-88
2020/12/18 02:47:41;;;;;;;;;;;2.50;99.90;;;;;;4957698;28;19925;-87
2020/12/18 02:50:06;;;;;;;;;;;2.50;99.90;;;;;;4974025;28;19966;-88
2020/12/18 02:52:32;;;;;;;;;;;2.50;99.90;;;;;;4957550;28;19910;-87
2020/12/18 02:54:59;;;;;;;;;;;2.50;99.90;;;;;;4975315;28;19917;-88
2020/12/18 02:57:25;;;;;;;;;;;2.40;99.90;;;;;;4957481;28;20354;-87
2020/12/18 02:59:50;;;;;;;;;;;2.40;99.90;;;;;;4957828;28;20139;-88
2020/12/18 03:02:18;;;;;;;;;;;2.40;99.90;;;;;;4973387;28;20278;-87
2020/12/18 03:04:44;;;;;;;;;;;2.40;99.90;;;;;;4955959;29;19922;-88
2020/12/18 03:07:09;;;;;;;;;;;2.40;99.90;;;;;;4953938;28;19919;-87
2020/12/18 03:09:35;;;;;;;;;;;2.40;99.90;;;;;;4954242;29;20282;-87
2020/12/18 03:12:04;;;;;;;;;;;2.40;99.90;;;;;;4938007;29;20334;-87
2020/12/18 03:14:29;;;;;;;;;;;2.40;99.90;;;;;;4930416;29;20013;-88
2020/12/18 03:16:55;;;;;;;;;;;2.50;99.90;;;;;;4937941;29;19960;-88
2020/12/18 03:19:20;;;;;;;;;;;2.50;99.90;;;;;;4954624;29;19917;-87
2020/12/18 03:21:46;;;;;;;;;;;2.40;99.90;;;;;;4953972;28;19910;-89
2020/12/18 03:24:11;;;;;;;;;;;2.40;99.90;;;;;;4954042;29;20326;-87
2020/12/18 03:26:37;;;;;;;;;;;2.40;99.90;;;;;;4954026;29;19965;-87
2020/12/18 03:29:05;;;;;;;;;;;2.40;99.90;;;;;;4954284;29;20282;-88
2020/12/18 03:31:30;;;;;;;;;;;2.40;99.90;;;;;;4954014;28;19911;-88
2020/12/18 03:33:56;;;;;;;;;;;2.40;99.90;;;;;;4954229;28;19911;-87
2020/12/18 03:36:21;;;;;;;;;;;2.40;99.90;;;;;;4953906;29;20061;-88
2020/12/18 03:38:49;;;;;;;;;;;2.40;99.90;;;;;;4953975;28;19917;-87
2020/12/18 03:41:15;;;;;;;;;;;2.40;99.90;;;;;;4953990;29;19914;-89
2020/12/18 03:43:40;;;;;;;;;;;2.50;99.90;;;;;;4953983;28;20255;-87
2020/12/18 03:46:08;;;;;;;;;;;2.50;99.90;;;;;;4954044;29;20366;-88
2020/12/18 03:48:34;;;;;;;;;;;2.60;99.90;;;;;;4937648;29;19962;-88
2020/12/18 03:50:59;;;;;;;;;;;2.50;99.90;;;;;;4954137;28;19911;-87
2020/12/18 03:53:25;;;;;;;;;;;2.50;99.90;;;;;;4956335;28;19914;-87
2020/12/18 03:55:50;;;;;;;;;;;2.50;99.90;;;;;;4957875;29;20355;-87
2020/12/18 03:58:16;;;;;;;;;;;2.60;99.90;;;;;;4957520;29;19918;-87
2020/12/18 04:00:41;;;;;;;;;;;2.50;99.90;;;;;;4957807;28;19961;-88
2020/12/18 04:03:12;;;;;;;;;;;2.50;99.90;;;;;;4963502;28;19968;-87
2020/12/18 04:05:37;;;;;;;;;;;2.50;99.90;;;;;;4960606;28;19946;-87
2020/12/18 04:08:03;;;;;;;;;;;2.50;99.90;;;;;;4976421;28;19957;-88
2020/12/18 04:10:31;;;;;;;;;;;2.50;99.90;;;;;;4976730;28;20383;-87
2020/12/18 04:12:56;;;;;;;;;;;2.50;99.90;;;;;;4976524;28;20381;-87
2020/12/18 04:15:22;;;;;;;;;;;2.50;99.90;;;;;;4960227;28;19910;-89
2020/12/18 04:17:49;;;;;;;;;;;2.50;99.90;;;;;;4977446;28;19914;-89
2020/12/18 04:20:15;;;;;;;;;;;2.50;99.90;;;;;;4960458;28;20370;-87
2020/12/18 04:22:43;;;;;;;;;;;2.60;99.90;;;;;;4976126;28;19917;-88
2020/12/18 04:25:09;;;;;;;;;;;2.60;99.90;;;;;;4964610;28;19950;-88
2020/12/18 04:27:34;;;;;;;;;;;2.60;99.90;;;;;;4974358;28;19969;-89
2020/12/18 04:30:00;;;;;;;;;;;2.60;99.90;;;;;;4960380;28;19910;-87
2020/12/18 04:32:26;;;;;;;;;;;2.60;99.90;;;;;;4962606;28;20002;-87
2020/12/18 04:34:54;;;;;;;;;;;2.60;99.90;;;;;;4960186;28;19959;-88
2020/12/18 04:37:20;;;;;;;;;;;2.60;99.90;;;;;;4976190;28;20051;-89
2020/12/18 04:39:45;;;;;;;;;;;2.60;99.90;;;;;;4960027;28;20354;-88
2020/12/18 04:42:11;;;;;;;;;;;2.70;99.90;;;;;;4959937;28;20345;-88
2020/12/18 04:44:36;;;;;;;;;;;2.60;99.90;;;;;;4976136;28;20037;-87
2020/12/18 04:47:07;;;;;;;;;;;2.60;99.90;;;;;;4975379;28;20026;-88
2020/12/18 04:49:35;;;;;;;;;;;2.40;99.90;;;;;;4975359;28;20321;-87
2020/12/18 04:52:10;;;;;;;;;;;2.40;99.90;;;;;;4974993;28;19911;-87
2020/12/18 04:54:42;;;;;;;;;;;2.40;99.90;;;;;;4975529;28;19914;-87
2020/12/18 04:57:11;;;;;;;;;;;2.30;99.90;;;;;;4975000;28;20273;-88
2020/12/18 04:59:42;;;;;;;;;;;2.40;99.90;;;;;;4975140;28;19917;-87
2020/12/18 05:02:10;;;;;;;;;;;2.40;99.90;;;;;;4974642;28;19918;-89
2020/12/18 05:04:42;;;;;;;;;;;2.30;99.90;;;;;;4960430;28;19933;-87
2020/12/18 05:07:08;;;;;;;;;;;2.20;99.90;;;;;;4975540;28;20373;-87
2020/12/18 05:09:37;;;;;;;;;;;2.20;99.90;;;;;;4980473;28;19914;-87
2020/12/18 05:12:06;;;;;;;;;;;2.30;99.90;;;;;;4954070;28;19953;-87
2020/12/18 05:14:31;;;;;;;;;;;2.40;99.90;;;;;;4975644;28;20362;-87
2020/12/18 05:17:04;;;;;;;;;;;2.30;99.90;;;;;;4975254;28;19910;-87
2020/12/18 05:19:31;;;;;;;;;;;2.30;99.90;;;;;;4966419;28;19961;-87
2020/12/18 05:22:00;;;;;;;;;;;2.20;99.90;;;;;;4975024;28;19964;-88
2020/12/18 05:24:28;;;;;;;;;;;2.10;99.90;;;;;;4967337;28;19914;-88
2020/12/18 05:26:54;;;;;;;;;;;2.10;99.90;;;;;;4970219;28;19921;-88
2020/12/18 05:29:23;;;;;;;;;;;2.10;99.90;;;;;;4975169;28;19916;-86
2020/12/18 05:31:48;;;;;;;;;;;2.10;99.90;;;;;;4975032;28;19910;-86
2020/12/18 05:34:14;;;;;;;;;;;2.10;99.90;;;;;;4975081;28;19911;-86
2020/12/18 05:36:45;;;;;;;;;;;2.00;99.90;;;;;;4964286;28;20269;-88
2020/12/18 05:39:15;;;;;;;;;;;2.00;99.90;;;;;;4974930;28;19992;-86
2020/12/18 05:41:54;;;;;;;;;;;2.10;99.90;;;;;;4961206;28;19914;-86
2020/12/18 05:44:23;;;;;;;;;;;2.10;99.90;;;;;;4958804;28;19918;-87
2020/12/18 05:46:50;;;;;;;;;;;2.10;99.90;;;;;;4957896;28;20148;-86
2020/12/18 05:49:28;;;;;;;;;;;2.10;99.90;;;;;;4975141;28;20365;-87
2020/12/18 05:51:56;;;;;;;;;;;2.10;99.90;;;;;;4950187;28;20341;-87
2020/12/18 05:54:22;;;;;;;;;;;2.20;99.90;;;;;;4975113;28;19980;-87
2020/12/18 05:56:50;;;;;;;;;;;2.20;99.90;;;;;;4958841;28;20014;-86
2020/12/18 05:59:19;;;;;;;;;;;2.20;99.90;;;;;;4974760;28;20270;-87
2020/12/18 06:01:46;;;;;;;;;;;2.20;99.90;;;;;;4972982;28;19914;-87
2020/12/18 06:04:13;;;;;;;;;;;2.20;99.90;;;;;;4973770;28;19965;-87
2020/12/18 06:06:40;;;;;;;;;;;2.20;99.90;;;;;;4968211;28;20021;-87
2020/12/18 06:09:07;;;;;;;;;;;2.20;99.90;;;;;;4967854;28;19976;-86
2020/12/18 06:11:33;;;;;;;;;;;2.20;99.90;;;;;;4969196;28;19933;-89
2020/12/18 06:14:01;;;;;;;;;;;2.20;99.90;;;;;;4973898;28;19910;-86
2020/12/18 06:16:28;;;;;;;;;;;2.20;99.90;;;;;;4974438;28;19914;-87
2020/12/18 06:18:54;;;;;;;;;;;2.20;99.90;;;;;;4971863;28;19973;-87
2020/12/18 06:21:22;;;;;;;;;;;2.20;99.90;;;;;;4974809;28;19918;-89
2020/12/18 06:23:54;;;;;;;;;;;2.20;99.90;;;;;;4973964;28;19910;-89
2020/12/18 06:26:22;;;;;;;;;;;2.40;99.90;;;;;;4973994;28;19980;-86
2020/12/18 06:28:50;;;;;;;;;;;2.30;99.90;;;;;;4955482;28;19961;-88
2020/12/18 06:31:30;;;;;;;;;;;2.40;99.90;;;;;;4974667;28;20370;-89
2020/12/18 06:33:59;;;;;;;;;;;2.30;99.90;;;;;;4973494;28;19918;-86
2020/12/18 06:36:43;;;;;;;;;;;2.30;99.90;;;;;;4973560;28;19910;-86
2020/12/18 06:39:25;;;;;;;;;;;2.30;99.90;;;;;;4955160;28;19922;-86
2020/12/18 06:42:10;;;;;;;;;;;2.30;99.90;;;;;;4973087;28;19910;-86
2020/12/18 06:44:38;;;;;;;;;;;2.30;99.90;;;;;;4973660;28;19950;-88
2020/12/18 06:47:11;;;;;;;;;;;2.30;99.90;;;;;;4973549;28;19944;-88
2020/12/18 06:49:54;;;;;;;;;;;2.30;99.90;;;;;;4965648;28;20409;-87
2020/12/18 06:52:36;;;;;;;;;;;2.20;99.90;;;;;;4966218;28;19917;-87
2020/12/18 06:55:02;;;;;;;;;;;2.20;99.90;;;;;;4973287;28;19914;-87
2020/12/18 06:57:27;;;;;;;;;;;2.20;99.90;;;;;;4964549;28;20368;-87
2020/12/18 07:00:13;;;;;;;;;;;2.20;99.90;;;;;;4973649;28;19914;-86
2020/12/18 07:02:40;;;;;;;;;;;2.10;99.90;;;;;;4973180;28;19930;-87
2020/12/18 07:05:28;;;;;;;;;;;2.10;99.90;;;;;;4978376;28;20012;-87
2020/12/18 07:07:56;;;;;;;;;;;2.10;99.90;;;;;;4967979;28;19985;-86
2020/12/18 07:10:25;;;;;;;;;;;2.10;99.90;;;;;;4954263;28;19910;-87
2020/12/18 07:12:50;;;;;;;;;;;2.00;99.90;;;;;;4973301;28;20009;-87
2020/12/18 07:15:16;;;;;;;;;;;2.00;99.90;;;;;;4957647;28;19981;-88
2020/12/18 07:17:48;;;;;;;;;;;2.00;99.90;;;;;;4973455;28;20033;-87
2020/12/18 07:20:15;;;;;;;;;;;2.00;99.90;;;;;;4957604;28;19910;-87
2020/12/18 07:22:42;;;;;;;;;;;2.00;99.90;;;;;;4973140;28;19910;-86
2020/12/18 07:25:13;;;;;;;;;;;2.00;99.90;;;;;;4966419;28;19919;-86
2020/12/18 07:27:39;;;;;;;;;;;2.00;99.90;;;;;;4957609;28;19965;-88
2020/12/18 07:30:16;;;;;;;;;;;1.90;99.90;;;;;;4971453;28;20274;-86
2020/12/18 07:32:42;;;;;;;;;;;1.90;99.90;;;;;;4959486;28;19927;-87
2020/12/18 07:35:09;;;;;;;;;;;1.90;99.90;;;;;;4977546;28;20500;-86
2020/12/18 07:37:39;;;;;;;;;;;1.90;99.90;;;;;;4960998;28;20214;-86
2020/12/18 07:40:05;;;;;;;;;;;1.90;99.90;;;;;;4982446;28;19914;-86
2020/12/18 07:42:31;;;;;;;;;;;1.90;99.90;;;;;;4977119;28;19917;-86
2020/12/18 07:45:10;;;;;;;;;;;2.00;99.90;;;;;;4961294;28;20056;-86
2020/12/18 07:47:39;;;;;;;;;;;2.00;99.90;;;;;;4961053;28;19922;-86
2020/12/18 07:50:05;;;;;;;;;;;2.00;99.90;;;;;;4961367;28;20259;-86
2020/12/18 07:52:34;;;;;;;;;;;2.00;99.90;;;;;;4975647;28;20117;-86
2020/12/18 07:54:59;;;;;;;;;;;2.00;99.90;;;;;;4975897;28;19921;-88
2020/12/18 07:57:28;;;;;;;;;;;2.10;99.90;;;;;;4960224;28;20291;-87
2020/12/18 08:00:12;;;;;;;;;;;2.10;99.90;;;;;;4976346;28;19922;-87
2020/12/18 08:02:40;;;;;;;;;;;2.10;99.90;;;;;;4959489;28;20373;-86
2020/12/18 08:05:05;;;;;;;;;;;2.20;99.90;;;;;;4971411;28;19922;-86
2020/12/18 08:07:31;;;;;;;;;;;2.20;99.90;;;;;;4955188;29;19938;-87
2020/12/18 08:10:00;;;;;;;;;;;2.30;99.90;;;;;;4969797;28;19914;-89
2020/12/18 08:12:26;;;;;;;;;;;2.30;99.90;;;;;;4975575;28;19918;-88
2020/12/18 08:15:11;;;;;;;;;;;2.40;99.90;;;;;;4960236;28;20363;-89
2020/12/18 08:17:37;;;;;;;;;;;2.50;99.90;;;;;;4972942;28;19922;-87
2020/12/18 08:20:06;;;;;;;;;;;2.60;99.90;;;;;;4972464;28;19914;-88
2020/12/18 08:22:35;;;;;;;;;;;2.70;99.90;;;;;;4974275;28;20022;-88
2020/12/18 08:25:01;;;;;;;;;;;2.80;99.90;;;;;;4975892;28;19918;-88
2020/12/18 08:27:33;;;;;;;;;;;2.80;99.90;;;;;;4974479;28;20043;-88
2020/12/18 08:30:03;;;;;;;;;;;2.80;99.90;;;;;;4977011;28;20386;-88
2020/12/18 08:32:32;;;;;;;;;;;2.90;99.90;;;;;;4974774;28;19914;-87
2020/12/18 08:35:01;;;;;;;;;;;3.00;99.90;;;;;;4973307;28;19931;-88
2020/12/18 08:37:27;;;;;;;;;;;3.00;99.90;;;;;;4974429;28;19916;-88
2020/12/18 08:39:52;;;;;;;;;;;3.10;99.90;;;;;;4973227;28;19914;-87
2020/12/18 08:42:18;;;;;;;;;;;3.20;99.90;;;;;;4975288;28;19917;-87
2020/12/18 08:44:44;;;;;;;;;;;3.30;99.90;;;;;;4961415;28;20290;-87
2020/12/18 08:47:20;;;;;;;;;;;3.30;99.90;;;;;;4956901;28;19930;-87
2020/12/18 08:49:46;;;;;;;;;;;3.30;99.90;;;;;;4975172;28;19924;-87
2020/12/18 08:52:11;;;;;;;;;;;3.30;99.90;;;;;;4959863;28;20363;-88
2020/12/18 08:54:43;;;;;;;;;;;3.30;99.90;;;;;;4976117;28;19911;-88
2020/12/18 08:57:08;;;;;;;;;;;3.40;99.90;;;;;;4973961;28;19945;-89
2020/12/18 08:59:37;;;;;;;;;;;3.40;99.90;;;;;;4947882;28;19953;-88
2020/12/18 09:02:02;;;;;;;;;;;3.40;99.90;;;;;;4967219;28;19919;-88
2020/12/18 09:04:28;;;;;;;;;;;3.40;99.90;;;;;;4966980;28;19923;-88
2020/12/18 09:06:56;;;;;;;;;;;3.40;99.90;;;;;;4966767;28;19924;-87
2020/12/18 09:09:21;;;;;;;;;;;3.40;99.90;;;;;;4969304;28;19917;-88
2020/12/18 09:11:48;;;;;;;;;;;3.40;99.90;;;;;;4974484;28;19910;-89
2020/12/18 09:14:27;;;;;;;;;;;3.50;99.90;;;;;;4968410;28;19914;-88
2020/12/18 09:16:59;;;;;;;;;;;3.50;99.90;;;;;;4937906;29;20275;-89
2020/12/18 09:19:24;;;;;;;;;;;3.50;99.90;;;;;;4957911;28;20005;-88
2020/12/18 09:21:51;;;;;;;;;;;3.50;99.90;;;;;;4956992;28;20009;-88
2020/12/18 09:24:22;;;;;;;;;;;3.50;99.90;;;;;;4956960;28;19921;-88
2020/12/18 09:26:48;;;;;;;;;;;3.50;99.90;;;;;;4956524;28;19922;-88
2020/12/18 09:29:16;;;;;;;;;;;3.50;99.90;;;;;;4956242;28;19921;-88
2020/12/18 09:31:42;;;;;;;;;;;3.50;99.90;;;;;;4963541;28;20374;-88
2020/12/18 09:34:17;;;;;;;;;;;3.50;99.90;;;;;;4956653;28;19914;-89
2020/12/18 09:36:44;;;;;;;;;;;3.50;99.90;;;;;;4956489;28;20242;-88
2020/12/18 09:39:11;;;;;;;;;;;3.50;99.90;;;;;;4956375;28;20236;-88
2020/12/18 09:41:38;;;;;;;;;;;3.50;99.90;;;;;;4956406;28;19965;-87
2020/12/18 09:44:05;;;;;;;;;;;3.50;99.90;;;;;;4956637;28;19914;-87
2020/12/18 09:46:32;;;;;;;;;;;3.50;99.90;;;;;;4956182;28;19922;-88
2020/12/18 09:48:59;;;;;;;;;;;3.50;99.90;;;;;;4973591;28;19921;-88
2020/12/18 10:40:40;;;;;;;;;;;4.60;99.90;;;;;;5041593;22;19987;-88
2020/12/18 10:43:05;;;;;;;;;;;4.80;99.90;;;;;;5050582;28;20027;-90
2020/12/18 10:45:33;;;;;;;;;;;4.80;99.90;;;;;;5033512;28;20024;-87
2020/12/18 10:47:59;;;;;;;;;;;5.00;99.90;;;;;;5033151;28;19921;-89
2020/12/18 10:50:24;;;;;;;;;;;5.00;99.90;;;;;;5033396;28;19912;-87
2020/12/18 10:52:50;;;;;;;;;;;5.10;99.90;;;;;;5033287;28;19909;-88
2020/12/18 10:55:15;;;;;;;;;;;5.10;99.90;;;;;;5033269;28;20004;-89
2020/12/18 10:57:41;;;;;;;;;;;5.10;99.90;;;;;;5033212;28;19913;-89
2020/12/18 11:00:06;;;;;;;;;;;5.10;99.90;;;;;;5033236;28;19909;-89
2020/12/18 11:02:35;;;;;;;;;;;5.10;99.90;;;;;;5032947;28;19909;-88
2020/12/18 11:05:01;;;;;;;;;;;5.20;99.90;;;;;;5035967;28;19916;-88
2020/12/18 11:07:26;;;;;;;;;;;5.20;99.90;;;;;;5036244;28;19921;-87
2020/12/18 11:09:52;;;;;;;;;;;5.30;99.90;;;;;;5036317;28;19912;-87
2020/12/18 11:12:18;;;;;;;;;;;5.30;99.90;;;;;;5034882;28;20368;-89
2020/12/18 11:14:45;;;;;;;;;;;5.40;99.90;;;;;;5034520;28;19919;-90
2020/12/18 11:17:10;;;;;;;;;;;5.50;99.90;;;;;;5035496;28;19956;-88
2020/12/18 11:19:36;;;;;;;;;;;5.50;99.90;;;;;;5034970;28;19940;-88
2020/12/18 11:22:07;;;;;;;;;;;5.60;99.90;;;;;;5036347;28;19917;-88
2020/12/18 11:24:37;;;;;;;;;;;5.60;99.90;;;;;;5031969;28;19916;-87
2020/12/18 11:27:04;;;;;;;;;;;5.70;99.90;;;;;;5035457;28;19921;-89
2020/12/18 11:39:05;;;;;;;;;;;5.90;99.90;;;;;;5065452;28;19927;-89
2020/12/18 11:41:33;;;;;;;;;;;6.00;99.90;;;;;;5055575;28;20012;-88
2020/12/18 11:43:58;;;;;;;;;;;6.00;99.90;;;;;;5055657;28;19913;-90
2020/12/18 11:46:26;;;;;;;;;;;6.10;99.90;;;;;;5056071;28;19970;-88
2020/12/18 11:48:55;;;;;;;;;;;6.10;99.90;;;;;;5055901;28;19913;-88
2020/12/18 11:51:26;;;;;;;;;;;6.10;99.90;;;;;;5054100;28;20381;-87
2020/12/18 11:53:54;;;;;;;;;;;6.10;99.90;;;;;;5056187;28;20298;-87
2020/12/18 11:56:29;;;;;;;;;;;6.20;99.90;;;;;;5056164;28;19908;-89
2020/12/18 11:58:55;;;;;;;;;;;6.20;99.90;;;;;;5055559;28;19909;-88
2020/12/18 12:01:23;;;;;;;;;;;6.30;99.90;;;;;;5055905;28;19931;-88
2020/12/18 12:03:52;;;;;;;;;;;6.30;99.90;;;;;;5056213;28;19912;-87
2020/12/18 12:06:18;;;;;;;;;;;6.40;99.90;;;;;;5055866;28;19912;-88
2020/12/18 12:08:46;;;;;;;;;;;6.50;99.90;;;;;;5055672;28;19913;-88
2020/12/18 12:11:12;;;;;;;;;;;6.50;99.90;;;;;;5055657;28;19909;-88
2020/12/18 12:13:38;;;;;;;;;;;6.50;99.90;;;;;;5052978;28;19989;-89
2020/12/18 12:16:04;;;;;;;;;;;6.60;99.90;;;;;;5040615;28;19919;-89
2020/12/18 12:18:30;;;;;;;;;;;6.60;99.90;;;;;;5040070;28;20445;-88
2020/12/18 12:20:55;;;;;;;;;;;6.70;99.90;;;;;;5049424;28;19917;-87
2020/12/18 12:23:23;;;;;;;;;;;6.70;99.90;;;;;;5049086;28;19999;-89
2020/12/18 12:25:49;;;;;;;;;;;6.70;99.90;;;;;;5055543;28;20204;-88
2020/12/18 12:28:14;;;;;;;;;;;6.80;99.90;;;;;;5053593;28;20065;-88
2020/12/18 12:30:40;;;;;;;;;;;6.80;99.90;;;;;;5054340;28;20014;-87
2020/12/18 12:33:05;;;;;;;;;;;6.90;99.90;;;;;;5055581;28;19916;-87
2020/12/18 12:35:33;;;;;;;;;;;7.00;99.90;;;;;;5053450;28;19920;-87
2020/12/18 12:38:04;;;;;;;;;;;7.00;99.90;;;;;;5055320;28;19930;-88
2020/12/18 12:40:29;;;;;;;;;;;7.10;99.90;;;;;;5072939;28;20384;-88
2020/12/18 12:42:55;;;;;;;;;;;7.10;99.90;;;;;;5055475;28;19912;-87
2020/12/18 12:45:21;;;;;;;;;;;7.10;99.90;;;;;;5054869;28;20003;-93
2020/12/18 12:47:46;;;;;;;;;;;7.10;99.90;;;;;;5052536;28;19916;-88
2020/12/18 12:50:12;;;;;;;;;;;7.10;99.90;;;;;;5049176;28;20000;-89
2020/12/18 12:52:37;;;;;;;;;;;7.10;99.90;;;;;;5054340;28;19927;-88
2020/12/18 12:55:05;;;;;;;;;;;7.10;99.90;;;;;;5054011;28;20373;-88
2020/12/18 12:57:31;;;;;;;;;;;7.10;99.90;;;;;;5054978;28;19917;-89
2020/12/18 12:59:56;;;;;;;;;;;7.20;99.90;;;;;;5047863;28;19912;-89
2020/12/18 13:02:22;;;;;;;;;;;7.20;99.90;;;;;;5043474;28;19913;-90
2020/12/18 13:04:48;;;;;;;;;;;7.20;99.90;;;;;;5059230;28;19912;-88
2020/12/18 13:07:14;;;;;;;;;;;7.20;99.90;;;;;;5050579;28;19917;-89
2020/12/18 13:09:39;;;;;;;;;;;7.30;99.90;;;;;;5052446;28;19917;-88
2020/12/18 13:12:08;;;;;;;;;;;7.30;99.90;;;;;;5044817;28;19962;-88
2020/12/18 13:14:34;;;;;;;;;;;7.30;99.90;;;;;;5043053;28;19958;-88
2020/12/18 13:16:59;;;;;;;;;;;7.40;99.90;;;;;;5042133;28;19912;-88
2020/12/18 13:19:25;;;;;;;;;;;7.40;99.90;;;;;;5054123;28;19963;-90
2020/12/18 13:21:50;;;;;;;;;;;7.40;99.90;;;;;;5041180;28;20016;-89
2020/12/18 13:24:27;;;;;;;;;;;7.40;99.90;;;;;;5048594;28;19912;-87
2020/12/18 13:26:54;;;;;;;;;;;7.50;99.90;;;;;;5049899;28;20388;-89
2020/12/18 13:29:19;;;;;;;;;;;7.50;99.90;;;;;;5042476;28;20007;-89
2020/12/18 13:31:46;;;;;;;;;;;7.60;99.90;;;;;;5054172;28;20023;-88
2020/12/18 13:34:11;;;;;;;;;;;7.60;99.90;;;;;;5048117;28;19912;-87
2020/12/18 13:36:37;;;;;;;;;;;7.60;99.90;;;;;;5053892;28;19918;-88
2020/12/18 13:39:04;;;;;;;;;;;7.70;99.90;;;;;;5048340;28;20400;-88
2020/12/18 13:41:30;;;;;;;;;;;7.70;99.90;;;;;;5038025;28;19920;-89
2020/12/18 13:43:57;;;;;;;;;;;7.70;99.90;;;;;;5044369;28;19912;-88
2020/12/18 13:46:22;;;;;;;;;;;7.80;99.90;;;;;;5038955;28;19917;-89
2020/12/18 15:59:32;;;;;;;;;;;6.70;99.90;;;;;;4988004;23;1381344;-88
2020/12/18 16:02:00;;;;;;;;;;;6.60;99.90;;;;;;5027863;28;20004;-89
2020/12/18 16:04:31;;;;;;;;;;;6.60;99.90;;;;;;5025876;28;19913;-90
2020/12/18 16:07:03;;;;;;;;;;;6.60;99.90;;;;;;5032938;28;19921;-88
2020/12/18 16:09:29;;;;;;;;;;;6.50;99.90;;;;;;5032478;28;19924;-89
2020/12/18 16:11:59;;;;;;;;;;;6.40;99.90;;;;;;5032521;28;20369;-89
2020/12/18 16:14:30;;;;;;;;;;;6.40;99.90;;;;;;5032100;28;19919;-89
2020/12/18 16:16:58;;;;;;;;;;;6.30;99.90;;;;;;5032202;28;20281;-90
2020/12/18 16:19:24;;;;;;;;;;;6.30;99.90;;;;;;5032013;28;19913;-88
2020/12/18 16:21:49;;;;;;;;;;;6.20;99.90;;;;;;5032014;28;19912;-88
2020/12/18 16:24:17;;;;;;;;;;;6.20;99.90;;;;;;5032256;28;19951;-88
2020/12/18 16:26:43;;;;;;;;;;;6.20;99.90;;;;;;5031834;28;19983;-89
2020/12/18 16:29:08;;;;;;;;;;;6.20;99.90;;;;;;5027086;28;19917;-88
2020/12/18 16:31:34;;;;;;;;;;;6.20;99.90;;;;;;5027713;28;20396;-88
2020/12/18 16:34:03;;;;;;;;;;;6.10;99.90;;;;;;5023262;28;20417;-89
2020/12/18 16:36:31;;;;;;;;;;;6.10;99.90;;;;;;5024147;28;19924;-90
2020/12/18 16:38:56;;;;;;;;;;;6.10;99.90;;;;;;5025601;28;20198;-90
2020/12/18 16:41:37;;;;;;;;;;;6.10;99.90;;;;;;5024747;28;20343;-88
2020/12/18 16:44:06;;;;;;;;;;;6.00;99.90;;;;;;5024970;28;19919;-89
2020/12/18 16:46:33;;;;;;;;;;;6.00;99.90;;;;;;5024667;28;19926;-88
2020/12/18 16:49:01;;;;;;;;;;;6.00;99.90;;;;;;5023347;28;19917;-91
2020/12/18 16:51:27;;;;;;;;;;;5.90;99.90;;;;;;5025898;28;19917;-87
2020/12/18 16:53:55;;;;;;;;;;;5.90;99.90;;;;;;5022051;28;19941;-90
2020/12/18 16:56:22;;;;;;;;;;;5.90;99.90;;;;;;5022337;28;19925;-87
2020/12/18 16:58:49;;;;;;;;;;;5.90;99.90;;;;;;5020778;28;19914;-87
2020/12/18 17:01:17;;;;;;;;;;;5.90;99.90;;;;;;5025092;28;20439;-87
2020/12/18 17:03:42;;;;;;;;;;;5.80;99.90;;;;;;5021638;28;19940;-87
2020/12/18 17:06:11;;;;;;;;;;;5.80;99.90;;;;;;5025587;28;20283;-87
2020/12/18 17:08:38;;;;;;;;;;;5.70;99.90;;;;;;5031174;28;20008;-87
2020/12/18 17:11:04;;;;;;;;;;;5.70;99.90;;;;;;5031179;28;20380;-88
2020/12/18 17:13:31;;;;;;;;;;;5.70;99.90;;;;;;5026973;28;19952;-89
2020/12/18 17:15:57;;;;;;;;;;;5.60;99.90;;;;;;5023284;28;20444;-87
2020/12/18 17:18:23;;;;;;;;;;;5.60;99.90;;;;;;5031647;28;20000;-87
2020/12/18 17:20:48;;;;;;;;;;;5.60;99.90;;;;;;5031099;28;19940;-88
2020/12/18 17:23:14;;;;;;;;;;;5.50;99.90;;;;;;5031337;28;19913;-88
2020/12/18 17:25:39;;;;;;;;;;;5.50;99.90;;;;;;5030984;28;19913;-87
2020/12/18 17:28:08;;;;;;;;;;;5.50;99.90;;;;;;5030923;28;19917;-87
2020/12/18 17:30:36;;;;;;;;;;;5.50;99.90;;;;;;5016962;28;19913;-87
2020/12/18 17:33:01;;;;;;;;;;;5.40;99.90;;;;;;5028000;28;19952;-88
2020/12/18 17:35:32;;;;;;;;;;;5.40;99.90;;;;;;5024805;28;20148;-87
2020/12/18 17:37:57;;;;;;;;;;;5.40;99.90;;;;;;5028674;28;19921;-87
2020/12/18 17:40:23;;;;;;;;;;;5.30;99.90;;;;;;5027951;28;19917;-88
2020/12/18 17:42:51;;;;;;;;;;;5.30;99.90;;;;;;5027270;28;20381;-86